Time,TemperatureF,DewpointF,PressureIn,WindDirection,WindDirectionDegrees,WindSpeedMPH,WindSpeedGustMPH,Humidity,HourlyPrecipIn,Conditions,Clouds,dailyrainin,SoftwareType,DateUTC
2014-09-18 00:03:00,63.5,38.1,29.93,SW,225,0.0,1.1,39,0.00,,,0.00,WUHU216HW,2014-09-18 07:03:00,
2014-09-18 00:08:00,63.5,38.8,29.94,West,270,1.1,1.3,40,0.00,,,0.00,WUHU216HW,2014-09-18 07:08:00,
2014-09-18 00:13:00,63.5,38.8,29.94,WSW,248,0.0,1.3,40,0.00,,,0.00,WUHU216HW,2014-09-18 07:13:00,
2014-09-18 00:18:00,63.4,39.3,29.93,WSW,248,1.8,1.8,41,0.00,,,0.00,WUHU216HW,2014-09-18 07:18:00,
2014-09-18 00:23:00,63.2,39.1,29.93,West,270,0.0,2.0,41,0.00,,,0.00,WUHU216HW,2014-09-18 07:23:00,
2014-09-18 00:28:00,63.0,39.4,29.94,NE,45,0.4,2.0,42,0.00,,,0.00,WUHU216HW,2014-09-18 07:28:00,
2014-09-18 00:33:00,63.2,38.4,29.94,WNW,293,0.7,2.2,40,0.00,,,0.00,WUHU216HW,2014-09-18 07:33:00,
2014-09-18 00:38:00,63.4,39.3,29.94,NW,315,0.0,2.2,41,0.00,,,0.00,WUHU216HW,2014-09-18 07:38:00,
2014-09-18 00:43:00,63.5,38.8,29.94,SW,225,1.1,1.3,40,0.00,,,0.00,WUHU216HW,2014-09-18 07:43:00,
2014-09-18 00:48:00,63.5,39.3,29.94,WSW,248,0.2,1.3,41,0.00,,,0.00,WUHU216HW,2014-09-18 07:48:00,
2014-09-18 00:53:00,63.5,38.8,29.94,WSW,248,0.0,1.3,40,0.00,,,0.00,WUHU216HW,2014-09-18 07:53:00,
2014-09-18 00:58:00,63.4,37.9,29.94,WSW,248,0.0,0.0,39,0.00,,,0.00,WUHU216HW,2014-09-18 07:58:00,
2014-09-18 01:03:00,63.4,38.6,29.95,NE,45,0.4,0.7,40,0.00,,,0.00,WUHU216HW,2014-09-18 08:03:00,
2014-09-18 01:08:00,63.4,38.6,29.95,West,270,0.4,1.1,40,0.00,,,0.00,WUHU216HW,2014-09-18 08:08:00,
2014-09-18 01:13:00,63.0,38.4,29.95,SW,225,0.0,1.1,40,0.00,,,0.00,WUHU216HW,2014-09-18 08:13:00,
2014-09-18 01:18:00,63.0,38.4,29.95,SW,225,0.7,0.7,40,0.00,,,0.00,WUHU216HW,2014-09-18 08:18:00,
2014-09-18 01:23:00,62.8,38.2,29.95,WSW,248,0.0,1.1,40,0.00,,,0.00,WUHU216HW,2014-09-18 08:23:00,
2014-09-18 01:28:00,62.3,38.3,29.94,SW,225,1.3,1.3,41,0.00,,,0.00,WUHU216HW,2014-09-18 08:28:00,
2014-09-18 01:33:00,62.1,39.3,29.94,WSW,248,0.9,1.3,43,0.00,,,0.00,WUHU216HW,2014-09-18 08:33:00,
2014-09-18 01:38:00,61.4,39.7,29.94,WSW,248,0.0,0.9,45,0.00,,,0.00,WUHU216HW,2014-09-18 08:38:00,
2014-09-18 01:43:00,61.0,38.8,29.94,West,270,0.7,2.2,44,0.00,,,0.00,WUHU216HW,2014-09-18 08:43:00,
2014-09-18 01:48:00,60.8,38.7,29.94,South,180,0.2,2.2,44,0.00,,,0.00,WUHU216HW,2014-09-18 08:48:00,
2014-09-18 01:53:00,61.2,40.7,29.95,SW,225,0.4,0.7,47,0.00,,,0.00,WUHU216HW,2014-09-18 08:53:00,
2014-09-18 01:58:00,61.6,39.3,29.94,SW,225,0.0,1.6,44,0.00,,,0.00,WUHU216HW,2014-09-18 08:58:00,
2014-09-18 02:03:00,61.6,38.7,29.95,WSW,248,1.1,1.6,43,0.00,,,0.00,WUHU216HW,2014-09-18 09:03:00,
2014-09-18 02:08:00,61.4,39.7,29.95,WSW,248,0.7,1.1,45,0.00,,,0.00,WUHU216HW,2014-09-18 09:08:00,
2014-09-18 02:13:00,61.2,40.1,29.94,West,270,0.4,1.6,46,0.00,,,0.00,WUHU216HW,2014-09-18 09:13:00,
2014-09-18 02:18:00,61.2,40.1,29.94,SW,225,0.2,1.6,46,0.00,,,0.00,WUHU216HW,2014-09-18 09:18:00,
2014-09-18 02:23:00,61.0,39.4,29.94,WSW,248,0.2,1.1,45,0.00,,,0.00,WUHU216HW,2014-09-18 09:23:00,
2014-09-18 02:28:00,60.8,40.4,29.94,NE,45,0.2,1.1,47,0.00,,,0.00,WUHU216HW,2014-09-18 09:28:00,
2014-09-18 02:33:00,60.8,40.4,29.94,West,270,2.0,4.0,47,0.00,,,0.00,WUHU216HW,2014-09-18 09:33:00,
2014-09-18 02:38:00,61.0,41.1,29.95,West,270,2.0,4.0,48,0.00,,,0.00,WUHU216HW,2014-09-18 09:38:00,
2014-09-18 02:43:00,61.9,40.8,29.94,NW,315,3.4,3.6,46,0.00,,,0.00,WUHU216HW,2014-09-18 09:43:00,
2014-09-18 02:48:00,62.3,41.7,29.94,SSW,203,1.8,3.8,47,0.00,,,0.00,WUHU216HW,2014-09-18 09:48:00,
2014-09-18 02:53:00,62.6,42.0,29.94,WNW,293,1.6,3.8,47,0.00,,,0.00,WUHU216HW,2014-09-18 09:53:00,
2014-09-18 02:58:00,62.6,42.0,29.94,WSW,248,1.1,2.2,47,0.00,,,0.00,WUHU216HW,2014-09-18 09:58:00,
2014-09-18 03:03:00,62.6,42.0,29.94,NW,315,0.0,2.2,47,0.00,,,0.00,WUHU216HW,2014-09-18 10:03:00,
2014-09-18 03:08:00,62.5,41.9,29.95,East,90,0.2,1.8,47,0.00,,,0.00,WUHU216HW,2014-09-18 10:08:00,
2014-09-18 03:13:00,62.5,41.9,29.95,SSW,203,0.9,1.8,47,0.00,,,0.00,WUHU216HW,2014-09-18 10:13:00,
2014-09-18 03:18:00,62.5,41.9,29.95,SSW,203,1.1,1.6,47,0.00,,,0.00,WUHU216HW,2014-09-18 10:18:00,
2014-09-18 03:23:00,62.3,42.3,29.95,West,270,0.0,1.6,48,0.00,,,0.00,WUHU216HW,2014-09-18 10:23:00,
2014-09-18 03:25:00,62.3,42.3,29.95,East,90,1.1,1.6,48,0.00,,,0.00,WUHU216HW,2014-09-18 10:25:00,
2014-09-18 03:30:00,62.3,42.3,29.95,SE,135,0.0,1.1,48,0.00,,,0.00,WUHU216HW,2014-09-18 10:30:00,
2014-09-18 03:35:00,62.3,42.3,29.95,NW,315,0.9,2.5,48,0.00,,,0.00,WUHU216HW,2014-09-18 10:35:00,